createdAt,value
2023-03-28T00:00:14.346Z,1025.90
2023-03-28T00:01:14.353Z,1025.87
2023-03-28T00:02:14.325Z,1025.85
2023-03-28T00:03:14.308Z,1025.79
2023-03-28T00:04:14.321Z,1025.74
2023-03-28T00:05:14.288Z,1025.51
2023-03-28T00:06:14.327Z,1025.47
2023-03-28T00:07:14.267Z,1025.48
2023-03-28T00:08:14.251Z,1025.44
2023-03-28T00:09:14.255Z,1025.39
2023-03-28T00:10:14.224Z,1025.36
2023-03-28T00:11:14.230Z,1025.39
2023-03-28T00:12:14.200Z,1025.38
2023-03-28T00:13:14.329Z,1025.37
2023-03-28T00:14:14.193Z,1025.38
2023-03-28T00:15:14.167Z,1025.41
2023-03-28T00:16:14.209Z,1025.40
2023-03-28T00:17:14.141Z,1025.36
2023-03-28T00:18:14.138Z,1025.37
2023-03-28T00:19:14.140Z,1025.44
2023-03-28T00:20:14.116Z,1025.48
2023-03-28T00:21:14.118Z,1025.53
2023-03-28T00:22:14.119Z,1025.47
2023-03-28T00:23:14.081Z,1025.42
2023-03-28T00:24:14.230Z,1025.44
2023-03-28T00:25:14.071Z,1025.45
2023-03-28T00:26:14.047Z,1025.42
2023-03-28T00:27:14.031Z,1025.38
2023-03-28T00:28:14.023Z,1025.37
2023-03-28T00:29:14.032Z,1025.36
2023-03-28T00:30:14.002Z,1025.30
2023-03-28T00:31:14.016Z,1025.09
2023-03-28T00:32:13.976Z,1025.00
2023-03-28T00:33:14.148Z,1024.94
2023-03-28T00:34:13.966Z,1024.70
2023-03-28T00:35:13.947Z,1024.65
2023-03-28T00:36:13.938Z,1024.58
2023-03-28T00:37:13.920Z,1024.52
2023-03-28T00:38:13.965Z,1024.52
2023-03-28T00:39:13.912Z,1024.53
2023-03-28T00:40:13.895Z,1024.34
2023-03-28T00:41:13.881Z,1024.28
2023-03-28T00:42:13.872Z,1024.21
2023-03-28T00:43:13.856Z,1023.94
2023-03-28T00:44:13.846Z,1023.80
2023-03-28T00:45:13.840Z,1023.56
2023-03-28T00:46:14.096Z,1023.50
2023-03-28T00:47:13.815Z,1023.50
2023-03-28T00:48:14.558Z,1023.49
2023-03-28T00:49:13.808Z,1023.24
2023-03-28T00:50:13.779Z,1023.11
2023-03-28T00:51:13.766Z,1022.97
2023-03-28T00:52:13.741Z,1022.96
2023-03-28T00:53:13.787Z,1022.92
2023-03-28T00:54:13.731Z,1022.86
2023-03-28T00:55:13.729Z,1022.87
2023-03-28T00:56:13.715Z,1022.82
2023-03-28T00:57:13.796Z,1022.71
2023-03-28T00:58:13.685Z,1022.63
2023-03-28T00:59:13.694Z,1022.66
2023-03-28T01:00:13.657Z,1022.59
2023-03-28T01:01:13.723Z,1022.58
2023-03-28T01:02:13.669Z,1022.51
2023-03-28T01:03:13.763Z,1022.51
2023-03-28T01:04:13.626Z,1022.59
2023-03-28T01:05:13.613Z,1022.59
2023-03-28T01:06:13.602Z,1022.45
2023-03-28T01:07:13.600Z,1022.40
2023-03-28T01:08:13.576Z,1022.26
2023-03-28T01:09:13.574Z,1022.14
2023-03-28T01:10:13.551Z,1022.12
2023-03-28T01:11:13.555Z,1022.06
2023-03-28T01:12:13.520Z,1022.03
2023-03-28T01:13:13.638Z,1022.10
2023-03-28T01:14:13.523Z,1022.07
2023-03-28T01:15:13.498Z,1021.98
2023-03-28T01:16:13.550Z,1021.94
2023-03-28T01:17:13.467Z,1021.84
2023-03-28T01:18:13.480Z,1021.76
2023-03-28T01:19:13.464Z,1021.71
2023-03-28T01:20:13.451Z,1021.65
2023-03-28T01:21:13.425Z,1021.58
2023-03-28T01:22:13.426Z,1021.52
2023-03-28T01:23:13.416Z,1021.50
2023-03-28T01:24:13.423Z,1021.50
2023-03-28T01:25:13.376Z,1021.41
2023-03-28T01:26:13.399Z,1021.35
2023-03-28T01:27:13.356Z,1021.29
2023-03-28T01:28:13.431Z,1021.18
2023-03-28T01:29:13.331Z,1021.14
2023-03-28T01:30:13.328Z,1021.07
2023-03-28T01:31:13.365Z,1021.05
2023-03-28T01:32:13.305Z,1021.09
2023-03-28T01:33:13.295Z,1021.19
2023-03-28T01:34:13.295Z,1021.25
2023-03-28T01:35:13.259Z,1021.09
2023-03-28T01:36:13.268Z,1020.98
2023-03-28T01:37:14.247Z,1020.92
2023-03-28T01:38:13.233Z,1020.98
2023-03-28T01:39:13.224Z,1020.96
2023-03-28T01:40:13.213Z,1020.93
2023-03-28T01:41:13.209Z,1020.92
2023-03-28T01:42:13.184Z,1020.89
2023-03-28T01:43:13.178Z,1020.80
2023-03-28T01:44:13.177Z,1020.75
2023-03-28T01:45:13.159Z,1020.80
2023-03-28T01:46:13.196Z,1020.82
2023-03-28T01:47:13.127Z,1020.77
2023-03-28T01:48:13.132Z,1020.70
2023-03-28T01:49:13.126Z,1020.74
2023-03-28T01:50:13.129Z,1020.79
2023-03-28T01:51:13.131Z,1020.86
2023-03-28T01:52:13.084Z,1020.84
2023-03-28T01:53:13.063Z,1020.76
2023-03-28T01:54:13.073Z,1020.71
2023-03-28T01:55:13.042Z,1020.79
2023-03-28T01:56:13.046Z,1020.78
2023-03-28T01:57:13.042Z,1020.80
2023-03-28T01:58:13.020Z,1020.76
2023-03-28T01:59:13.001Z,1020.75
2023-03-28T02:00:13.051Z,1020.71
2023-03-28T02:01:13.193Z,1020.63
2023-03-28T02:02:13.023Z,1020.60
2023-03-28T02:03:13.032Z,1020.59
2023-03-28T02:04:20.798Z,1020.56
2023-03-28T02:05:15.444Z,1020.51
2023-03-28T02:06:12.939Z,1020.56
2023-03-28T02:07:12.909Z,1020.57
2023-03-28T02:08:12.900Z,1020.53
2023-03-28T02:09:12.899Z,1020.59
2023-03-28T02:10:12.878Z,1020.57
2023-03-28T02:11:12.883Z,1020.59
2023-03-28T02:12:12.857Z,1020.58
2023-03-28T02:13:12.859Z,1020.50
2023-03-28T02:14:12.851Z,1020.51
2023-03-28T02:15:12.829Z,1020.58
2023-03-28T02:16:12.883Z,1020.62
2023-03-28T02:17:12.803Z,1020.69
2023-03-28T02:18:12.807Z,1020.75
2023-03-28T02:19:12.807Z,1020.74
2023-03-28T02:20:12.771Z,1020.63
2023-03-28T02:21:12.772Z,1020.58
2023-03-28T02:22:12.745Z,1020.55
2023-03-28T02:23:12.744Z,1020.53
2023-03-28T02:24:12.730Z,1020.49
2023-03-28T02:25:12.721Z,1020.47
2023-03-28T02:26:12.719Z,1020.55
2023-03-28T02:27:12.697Z,1020.58
2023-03-28T02:28:12.686Z,1020.44
2023-03-28T02:29:12.702Z,1020.34
2023-03-28T02:30:12.649Z,1020.34
2023-03-28T02:31:12.688Z,1020.45
2023-03-28T02:32:12.649Z,1020.44
2023-03-28T02:33:12.635Z,1020.43
2023-03-28T02:34:12.641Z,1020.37
2023-03-28T02:35:12.625Z,1020.25
2023-03-28T02:36:12.590Z,1020.20
2023-03-28T02:37:12.593Z,1020.11
2023-03-28T02:38:12.573Z,1020.08
2023-03-28T02:39:12.594Z,1020.06
2023-03-28T02:40:12.556Z,1020.09
2023-03-28T02:41:12.560Z,1020.10
2023-03-28T02:42:12.542Z,1020.08
2023-03-28T02:43:12.520Z,1020.09
2023-03-28T02:44:12.511Z,1020.16
2023-03-28T02:45:12.498Z,1020.10
2023-03-28T02:46:12.525Z,1020.06
2023-03-28T02:47:12.478Z,1019.96
2023-03-28T02:48:12.482Z,1019.94
2023-03-28T02:49:12.458Z,1019.90
2023-03-28T02:50:12.443Z,1019.98
2023-03-28T02:51:12.438Z,1020.17
2023-03-28T02:52:12.426Z,1020.43
2023-03-28T02:53:12.429Z,1020.45
2023-03-28T02:54:12.405Z,1020.48
2023-03-28T02:55:12.414Z,1020.84
2023-03-28T02:56:12.389Z,1021.08
2023-03-28T02:57:12.397Z,1021.17
2023-03-28T02:58:12.361Z,1021.21
2023-03-28T02:59:12.339Z,1021.37
2023-03-28T03:00:12.335Z,1021.53
2023-03-28T03:01:12.364Z,1021.52
2023-03-28T03:02:12.316Z,1021.27
2023-03-28T03:03:12.340Z,1021.00
2023-03-28T03:04:12.358Z,1020.95
2023-03-28T03:05:12.294Z,1020.87
2023-03-28T03:06:12.291Z,1020.76
2023-03-28T03:07:12.253Z,1020.95
2023-03-28T03:08:12.296Z,1021.07
2023-03-28T03:09:12.236Z,1021.13
2023-03-28T03:10:12.231Z,1021.14
2023-03-28T03:11:12.217Z,1021.21
2023-03-28T03:12:12.205Z,1021.30
2023-03-28T03:13:12.193Z,1021.29
2023-03-28T03:14:12.200Z,1021.04
2023-03-28T03:15:12.164Z,1020.86
2023-03-28T03:16:12.254Z,1020.86
2023-03-28T03:17:12.146Z,1021.09
2023-03-28T03:18:12.133Z,1021.22
2023-03-28T03:19:12.130Z,1021.30
2023-03-28T03:20:12.131Z,1021.28
2023-03-28T03:21:12.128Z,1021.31
2023-03-28T03:22:12.080Z,1021.34
2023-03-28T03:23:13.069Z,1021.42
2023-03-28T03:24:12.063Z,1021.34
2023-03-28T03:25:13.878Z,1021.28
2023-03-28T03:26:12.050Z,1021.27
2023-03-28T03:27:12.030Z,1021.14
2023-03-28T03:28:12.019Z,1021.03
2023-03-28T03:29:12.016Z,1021.04
2023-03-28T03:30:12.021Z,1020.93
2023-03-28T03:31:12.040Z,1020.87
2023-03-28T03:32:11.973Z,1020.89
2023-03-28T03:33:11.971Z,1020.94
2023-03-28T03:34:11.959Z,1021.14
2023-03-28T03:35:11.958Z,1021.20
2023-03-28T03:36:11.934Z,1021.30
2023-03-28T03:37:11.916Z,1021.33
2023-03-28T03:38:11.898Z,1021.32
2023-03-28T03:39:11.899Z,1021.33
2023-03-28T03:40:11.907Z,1021.16
2023-03-28T03:41:11.884Z,1020.89
2023-03-28T03:42:11.860Z,1020.81
2023-03-28T03:43:11.849Z,1020.70
2023-03-28T03:44:11.846Z,1020.71
2023-03-28T03:45:11.817Z,1020.69
2023-03-28T03:46:11.876Z,1020.65
2023-03-28T03:47:11.823Z,1020.71
2023-03-28T03:48:11.860Z,1020.94
2023-03-28T03:49:11.782Z,1021.26
2023-03-28T03:50:11.794Z,1021.40
2023-03-28T03:51:11.776Z,1021.35
2023-03-28T03:52:12.047Z,1021.36
2023-03-28T03:53:11.737Z,1021.29
2023-03-28T03:54:11.730Z,1021.12
2023-03-28T03:55:11.736Z,1020.91
2023-03-28T03:56:11.717Z,1020.82
2023-03-28T03:57:11.740Z,1020.82
2023-03-28T03:58:11.836Z,1020.76
2023-03-28T03:59:11.679Z,1020.68
2023-03-28T04:00:11.671Z,1020.59
2023-03-28T04:01:11.669Z,1020.50
2023-03-28T04:02:11.747Z,1020.38
2023-03-28T04:03:24.697Z,1020.31
2023-03-28T04:04:12.700Z,1020.31
2023-03-28T04:05:11.615Z,1020.30
2023-03-28T04:06:11.586Z,1020.35
2023-03-28T04:07:11.573Z,1020.41
2023-03-28T04:08:11.587Z,1020.45
2023-03-28T04:09:11.552Z,1020.46
2023-03-28T04:10:11.562Z,1020.39
2023-03-28T04:11:11.539Z,1020.35
2023-03-28T04:12:11.531Z,1020.28
2023-03-28T04:13:11.514Z,1020.26
2023-03-28T04:14:11.773Z,1020.25
2023-03-28T04:15:11.501Z,1020.22
2023-03-28T04:16:11.521Z,1020.16
2023-03-28T04:17:11.465Z,1020.13
2023-03-28T04:18:11.467Z,1020.14
2023-03-28T04:19:11.449Z,1020.06
2023-03-28T04:20:11.488Z,1020.02
2023-03-28T04:21:11.437Z,1020.05
2023-03-28T04:22:11.401Z,1020.00
2023-03-28T04:23:11.414Z,1020.09
2023-03-28T04:24:11.380Z,1020.20
2023-03-28T04:25:11.378Z,1020.17
2023-03-28T04:26:11.350Z,1020.13
2023-03-28T04:27:11.350Z,1020.19
2023-03-28T04:28:11.335Z,1020.08
2023-03-28T04:29:11.329Z,1019.89
2023-03-28T04:30:11.317Z,1019.76
2023-03-28T04:31:11.385Z,1019.75
2023-03-28T04:32:11.299Z,1019.70
2023-03-28T04:33:11.336Z,1019.77
2023-03-28T04:34:11.267Z,1019.65
2023-03-28T04:35:11.295Z,1019.61
2023-03-28T04:36:11.309Z,1019.71
2023-03-28T04:37:11.240Z,1019.71
2023-03-28T04:38:20.377Z,1019.70
2023-03-28T04:39:12.214Z,1019.79
2023-03-28T04:40:11.213Z,1019.84
2023-03-28T04:41:11.221Z,1019.76
2023-03-28T04:42:11.179Z,1019.67
2023-03-28T04:43:11.163Z,1019.56
2023-03-28T04:44:11.158Z,1019.66
2023-03-28T04:45:11.169Z,1019.67
2023-03-28T04:46:11.234Z,1019.67
2023-03-28T04:47:11.125Z,1019.68
2023-03-28T04:48:11.113Z,1019.64
2023-03-28T04:49:11.108Z,1019.64
2023-03-28T04:50:11.143Z,1019.61
2023-03-28T04:51:11.094Z,1019.80
2023-03-28T04:52:11.397Z,1019.76
2023-03-28T04:53:11.056Z,1019.71
2023-03-28T04:54:11.046Z,1019.62
2023-03-28T04:55:11.044Z,1019.55
2023-03-28T04:56:11.023Z,1019.48
2023-03-28T04:57:11.035Z,1019.38
2023-03-28T04:58:11.018Z,1019.39
2023-03-28T04:59:10.982Z,1019.32
2023-03-28T05:00:11.002Z,1019.24
2023-03-28T05:01:10.999Z,1019.23
2023-03-28T05:02:11.019Z,1019.29
2023-03-28T05:03:12.843Z,1019.34
2023-03-28T05:04:10.940Z,1019.36
2023-03-28T05:05:10.914Z,1019.39
2023-03-28T05:06:10.917Z,1019.42
2023-03-28T05:07:10.891Z,1019.43
2023-03-28T05:08:10.880Z,1019.43
2023-03-28T05:09:10.881Z,1019.43
2023-03-28T05:10:12.904Z,1019.50
2023-03-28T05:11:10.854Z,1019.53
2023-03-28T05:12:10.845Z,1019.52
2023-03-28T05:13:10.832Z,1019.58
2023-03-28T05:14:10.804Z,1019.62
2023-03-28T05:15:10.808Z,1019.61
2023-03-28T05:16:10.857Z,1019.60
2023-03-28T05:17:10.772Z,1019.57
2023-03-28T05:18:10.785Z,1019.53
2023-03-28T05:19:10.751Z,1019.53
2023-03-28T05:20:10.741Z,1019.47
2023-03-28T05:21:10.741Z,1019.47
2023-03-28T05:22:10.720Z,1019.44
2023-03-28T05:23:10.746Z,1019.41
2023-03-28T05:24:10.709Z,1019.43
2023-03-28T05:25:10.686Z,1019.52
2023-03-28T05:26:10.685Z,1019.55
2023-03-28T05:27:10.669Z,1019.53
2023-03-28T05:28:10.643Z,1019.53
2023-03-28T05:29:10.640Z,1019.54
2023-03-28T05:30:10.618Z,1019.54
2023-03-28T05:31:10.628Z,1019.55
2023-03-28T05:32:10.728Z,1019.55
2023-03-28T05:33:10.646Z,1019.54
2023-03-28T05:34:10.571Z,1019.58
2023-03-28T05:35:10.587Z,1019.59
2023-03-28T05:36:10.630Z,1019.67
2023-03-28T05:37:10.549Z,1019.76
2023-03-28T05:38:10.532Z,1019.79
2023-03-28T05:39:10.528Z,1019.84
2023-03-28T05:40:10.518Z,1019.84
2023-03-28T05:41:10.513Z,1019.92
2023-03-28T05:42:10.499Z,1020.00
2023-03-28T05:43:10.473Z,1020.05
2023-03-28T05:44:10.463Z,1020.10
2023-03-28T05:45:10.477Z,1020.08
2023-03-28T05:46:10.560Z,1020.13
2023-03-28T05:47:10.435Z,1020.16
2023-03-28T05:48:10.486Z,1020.09
2023-03-28T05:49:10.414Z,1020.12
2023-03-28T05:50:10.393Z,1020.13
2023-03-28T05:51:10.409Z,1020.13
2023-03-28T05:52:10.374Z,1020.14
2023-03-28T05:53:10.367Z,1020.14
2023-03-28T05:54:10.343Z,1020.19
2023-03-28T05:55:10.338Z,1020.21
2023-03-28T05:56:10.341Z,1020.28
2023-03-28T05:57:10.357Z,1020.34
2023-03-28T05:58:10.304Z,1020.31
2023-03-28T05:59:10.305Z,1020.33
2023-03-28T06:00:10.291Z,1020.39
2023-03-28T06:01:10.299Z,1020.42
2023-03-28T06:02:10.266Z,1020.47
2023-03-28T06:03:17.214Z,1020.48
2023-03-28T06:04:11.252Z,1020.50
2023-03-28T06:05:10.354Z,1020.58
2023-03-28T06:06:10.230Z,1020.62
2023-03-28T06:07:10.204Z,1020.71
2023-03-28T06:08:10.195Z,1020.92
2023-03-28T06:09:10.188Z,1021.01
2023-03-28T06:10:10.196Z,1021.07
2023-03-28T06:11:10.170Z,1021.16
2023-03-28T06:12:10.147Z,1021.22
2023-03-28T06:13:10.147Z,1021.25
2023-03-28T06:14:10.121Z,1021.30
2023-03-28T06:15:10.127Z,1021.28
2023-03-28T06:16:11.841Z,1021.27
2023-03-28T06:17:10.162Z,1021.32
2023-03-28T06:18:10.164Z,1021.39
2023-03-28T06:19:17.765Z,1021.38
2023-03-28T06:20:11.108Z,1021.36
2023-03-28T06:21:10.055Z,1021.45
2023-03-28T06:22:10.032Z,1021.53
2023-03-28T06:23:10.024Z,1021.61
2023-03-28T06:24:10.014Z,1021.75
2023-03-28T06:25:10.005Z,1021.81
2023-03-28T06:26:10.007Z,1021.82
2023-03-28T06:27:09.978Z,1021.81
2023-03-28T06:28:09.971Z,1021.88
2023-03-28T06:29:09.948Z,1022.01
2023-03-28T06:30:09.947Z,1022.09
2023-03-28T06:31:10.014Z,1022.19
2023-03-28T06:32:09.940Z,1022.30
2023-03-28T06:33:09.910Z,1022.39
2023-03-28T06:34:09.915Z,1022.45
2023-03-28T06:35:09.901Z,1022.57
2023-03-28T06:36:09.945Z,1022.67
2023-03-28T06:37:09.870Z,1022.79
2023-03-28T06:38:09.888Z,1022.94
2023-03-28T06:39:09.855Z,1022.97
2023-03-28T06:40:09.862Z,1023.09
2023-03-28T06:41:09.847Z,1023.20
2023-03-28T06:42:09.815Z,1023.26
2023-03-28T06:43:09.795Z,1023.32
2023-03-28T06:44:09.784Z,1023.52
2023-03-28T06:45:09.773Z,1023.59
2023-03-28T06:46:09.835Z,1023.63
2023-03-28T06:47:09.759Z,1023.65
2023-03-28T06:48:09.833Z,1023.84
2023-03-28T06:49:09.744Z,1023.90
2023-03-28T06:50:09.756Z,1023.97
2023-03-28T06:51:09.745Z,1024.01
2023-03-28T06:52:11.428Z,1024.20
2023-03-28T06:53:09.708Z,1024.27
2023-03-28T06:54:09.680Z,1024.30
2023-03-28T06:55:09.677Z,1024.35
2023-03-28T06:56:09.677Z,1024.53
2023-03-28T06:57:09.760Z,1024.62
2023-03-28T06:58:09.639Z,1024.66
2023-03-28T06:59:09.676Z,1024.72
2023-03-28T07:00:09.628Z,1024.94
2023-03-28T07:01:11.532Z,1024.99
2023-03-28T07:02:09.924Z,1025.03
2023-03-28T07:03:09.698Z,1025.11
2023-03-28T07:04:09.702Z,1025.31
2023-03-28T07:05:09.558Z,1025.38
2023-03-28T07:06:09.578Z,1025.40
2023-03-28T07:07:09.656Z,1025.41
2023-03-28T07:08:09.534Z,1025.48
2023-03-28T07:09:09.514Z,1025.52
2023-03-28T07:10:09.516Z,1025.73
2023-03-28T07:11:09.517Z,1025.75
2023-03-28T07:12:09.488Z,1025.79
2023-03-28T07:13:09.616Z,1025.86
2023-03-28T07:14:09.457Z,1025.89
2023-03-28T07:15:09.449Z,1025.96
2023-03-28T07:16:09.497Z,1026.14
2023-03-28T07:17:09.421Z,1026.21
2023-03-28T07:18:09.477Z,1026.28
2023-03-28T07:19:09.435Z,1026.31
2023-03-28T07:20:09.735Z,1026.38
2023-03-28T07:21:09.691Z,1026.59
2023-03-28T07:22:09.376Z,1026.64
2023-03-28T07:23:09.357Z,1026.68
2023-03-28T07:24:09.368Z,1026.69
2023-03-28T07:25:09.380Z,1026.74
2023-03-28T07:26:09.674Z,1026.74
2023-03-28T07:27:15.429Z,1026.76
2023-03-28T07:28:10.595Z,1026.83
2023-03-28T07:29:16.334Z,1027.01
2023-03-28T07:30:16.317Z,1027.07
2023-03-28T07:31:09.352Z,1027.11
2023-03-28T07:32:16.782Z,1027.17
2023-03-28T07:33:17.456Z,1027.21
2023-03-28T07:34:10.289Z,1027.26
2023-03-28T07:35:09.221Z,1027.31
2023-03-28T07:36:09.259Z,1027.54
2023-03-28T07:37:09.199Z,1027.57
2023-03-28T07:38:09.186Z,1027.63
2023-03-28T07:39:09.194Z,1027.70
2023-03-28T07:40:09.170Z,1027.77
2023-03-28T07:41:09.172Z,1027.83
2023-03-28T07:42:09.151Z,1028.06
2023-03-28T07:43:09.137Z,1028.18
2023-03-28T07:44:09.118Z,1028.25
2023-03-28T07:45:09.114Z,1028.31
2023-03-28T07:46:09.166Z,1028.40
2023-03-28T07:47:09.349Z,1028.66
2023-03-28T07:48:09.161Z,1028.75
2023-03-28T07:49:09.064Z,1028.80
2023-03-28T07:50:09.068Z,1028.88
2023-03-28T07:51:09.046Z,1028.91
2023-03-28T07:52:09.022Z,1028.97
2023-03-28T07:53:09.028Z,1028.97
2023-03-28T07:54:09.014Z,1029.04
2023-03-28T07:55:08.986Z,1029.01
2023-03-28T07:56:08.992Z,1029.07
2023-03-28T07:57:08.987Z,1029.09
2023-03-28T07:58:08.975Z,1029.09
2023-03-28T07:59:08.943Z,1029.31
2023-03-28T08:00:08.941Z,1029.36
2023-03-28T08:01:08.949Z,1029.38
2023-03-28T08:02:08.908Z,1029.44
2023-03-28T08:03:08.955Z,1029.47
2023-03-28T08:04:08.928Z,1029.49
2023-03-28T08:05:08.924Z,1029.58
2023-03-28T08:06:17.033Z,1029.70
2023-03-28T08:07:09.848Z,1029.76
2023-03-28T08:08:08.866Z,1029.79
2023-03-28T08:09:08.846Z,1029.91
2023-03-28T08:10:08.827Z,1029.92
2023-03-28T08:11:08.850Z,1029.95
2023-03-28T08:12:08.821Z,1030.01
2023-03-28T08:13:08.784Z,1030.08
2023-03-28T08:14:08.802Z,1030.17
2023-03-28T08:15:08.771Z,1030.15
2023-03-28T08:16:08.821Z,1030.16
2023-03-28T08:17:08.770Z,1030.19
2023-03-28T08:18:08.835Z,1030.25
2023-03-28T08:19:11.735Z,1030.25
2023-03-28T08:20:08.719Z,1030.31
2023-03-28T08:21:08.729Z,1030.39
2023-03-28T08:22:08.696Z,1030.45
2023-03-28T08:23:08.672Z,1030.54
2023-03-28T08:24:08.671Z,1030.55
2023-03-28T08:25:08.666Z,1030.63
2023-03-28T08:26:08.651Z,1030.72
2023-03-28T08:27:08.622Z,1030.80
2023-03-28T08:28:08.678Z,1030.87
2023-03-28T08:29:08.599Z,1030.92
2023-03-28T08:30:08.916Z,1031.01
2023-03-28T08:31:08.653Z,1031.10
2023-03-28T08:32:08.586Z,1031.17
2023-03-28T08:33:08.644Z,1031.29
2023-03-28T08:34:08.549Z,1031.37
2023-03-28T08:35:08.554Z,1031.45
2023-03-28T08:36:08.592Z,1031.47
2023-03-28T08:37:08.551Z,1031.55
2023-03-28T08:38:11.049Z,1031.46
2023-03-28T08:39:08.486Z,1031.40
2023-03-28T08:40:08.507Z,1031.39
2023-03-28T08:41:08.503Z,1031.46
2023-03-28T08:42:08.451Z,1031.58
2023-03-28T08:43:08.457Z,1031.73
2023-03-28T08:44:08.429Z,1031.81
2023-03-28T08:45:08.429Z,1031.92
2023-03-28T08:46:08.464Z,1032.01
2023-03-28T08:47:08.403Z,1032.07
2023-03-28T08:48:08.461Z,1032.17
2023-03-28T08:49:08.403Z,1032.35
2023-03-28T08:50:09.731Z,1032.29
2023-03-28T08:51:08.392Z,1032.37
2023-03-28T08:52:08.593Z,1032.56
2023-03-28T08:53:08.360Z,1032.73
2023-03-28T08:54:08.327Z,1032.81
2023-03-28T08:55:08.426Z,1033.02
2023-03-28T08:56:08.328Z,1033.05
2023-03-28T08:57:08.373Z,1033.25
2023-03-28T08:58:08.542Z,1033.30
2023-03-28T08:59:08.299Z,1033.53
2023-03-28T09:00:08.252Z,1033.76
2023-03-28T09:01:08.288Z,1033.85
2023-03-28T09:02:08.322Z,1034.08
2023-03-28T09:03:08.321Z,1034.10
2023-03-28T09:04:08.306Z,1034.10
2023-03-28T09:05:22.423Z,1034.32
2023-03-28T09:06:09.212Z,1034.33
2023-03-28T09:07:08.179Z,1034.55
2023-03-28T09:08:11.008Z,1034.61
2023-03-28T09:09:08.172Z,1034.83
2023-03-28T09:10:08.144Z,1034.86
2023-03-28T09:11:08.483Z,1034.88
2023-03-28T09:12:08.175Z,1034.87
2023-03-28T09:13:08.117Z,1034.91
2023-03-28T09:14:15.130Z,1035.10
2023-03-28T09:15:15.117Z,1035.09
2023-03-28T09:16:15.284Z,1035.07
2023-03-28T09:17:08.059Z,1035.10
2023-03-28T09:18:15.102Z,1035.09
2023-03-28T09:19:08.043Z,1035.11
2023-03-28T09:20:08.029Z,1035.15
2023-03-28T09:21:08.035Z,1035.36
2023-03-28T09:22:15.173Z,1035.16
2023-03-28T09:23:09.018Z,1035.13
2023-03-28T09:24:08.017Z,1035.15
2023-03-28T09:25:07.983Z,1035.16
2023-03-28T09:26:07.981Z,1035.33
2023-03-28T09:27:07.988Z,1035.33
2023-03-28T09:28:07.939Z,1035.34
2023-03-28T09:29:07.928Z,1035.32
2023-03-28T09:30:07.927Z,1035.14
2023-03-28T09:31:07.920Z,1035.15
2023-03-28T09:32:07.948Z,1035.12
2023-03-28T09:33:07.930Z,1035.14
2023-03-28T09:34:07.858Z,1035.14
2023-03-28T09:35:07.874Z,1035.14
2023-03-28T09:36:08.226Z,1035.32
2023-03-28T09:37:07.848Z,1035.33
2023-03-28T09:38:07.828Z,1035.35
2023-03-28T09:39:07.844Z,1035.36
2023-03-28T09:40:07.827Z,1035.36
2023-03-28T09:41:07.790Z,1035.34
2023-03-28T09:42:07.814Z,1035.32
2023-03-28T09:43:08.506Z,1035.15
2023-03-28T09:44:07.753Z,1035.35
2023-03-28T09:45:07.764Z,1035.40
2023-03-28T09:46:07.790Z,1035.41
2023-03-28T09:47:07.733Z,1035.44
2023-03-28T09:48:07.818Z,1035.62
2023-03-28T09:49:07.724Z,1035.62
2023-03-28T09:50:12.842Z,1035.67
2023-03-28T09:51:08.684Z,1035.73
2023-03-28T09:52:07.687Z,1035.70
2023-03-28T09:53:07.660Z,1035.68
2023-03-28T09:54:07.660Z,1035.71
2023-03-28T09:55:07.644Z,1035.72
2023-03-28T09:56:07.625Z,1035.93
2023-03-28T09:57:07.660Z,1035.99
2023-03-28T09:58:07.603Z,1035.94
2023-03-28T09:59:07.590Z,1035.94
2023-03-28T10:00:07.591Z,1036.01
2023-03-28T10:01:07.594Z,1036.03
2023-03-28T10:02:07.566Z,1036.04
2023-03-28T10:03:07.626Z,1036.26
2023-03-28T10:04:07.564Z,1036.30
2023-03-28T10:05:07.597Z,1036.32
2023-03-28T10:06:07.495Z,1036.30
2023-03-28T10:07:07.520Z,1036.35
2023-03-28T10:08:07.501Z,1036.54
2023-03-28T10:09:07.464Z,1036.35
2023-03-28T10:10:07.448Z,1036.54
2023-03-28T10:11:07.444Z,1036.62
2023-03-28T10:12:07.452Z,1036.62
2023-03-28T10:13:07.424Z,1036.62
2023-03-28T10:14:07.416Z,1036.60
2023-03-28T10:15:07.402Z,1036.62
2023-03-28T10:16:07.458Z,1036.65
2023-03-28T10:17:07.405Z,1036.83
2023-03-28T10:18:07.399Z,1036.85
2023-03-28T10:19:07.361Z,1036.34
2023-03-28T10:20:07.349Z,1036.29
2023-03-28T10:21:07.344Z,1036.54
2023-03-28T10:22:07.366Z,1036.64
2023-03-28T10:23:07.304Z,1036.86
2023-03-28T10:24:07.299Z,1036.95
2023-03-28T10:25:07.321Z,1037.15
2023-03-28T10:26:07.305Z,1037.15
2023-03-28T10:27:07.290Z,1036.98
2023-03-28T10:28:07.274Z,1036.96
2023-03-28T10:29:07.244Z,1037.19
2023-03-28T10:30:07.246Z,1037.26
2023-03-28T10:31:07.274Z,1037.28
2023-03-28T10:32:07.233Z,1037.33
2023-03-28T10:33:07.265Z,1037.31
2023-03-28T10:34:07.199Z,1037.28
2023-03-28T10:35:07.178Z,1037.27
2023-03-28T10:36:07.205Z,1037.29
2023-03-28T10:37:07.184Z,1037.28
2023-03-28T10:38:07.166Z,1037.26
2023-03-28T10:39:07.168Z,1037.30
2023-03-28T10:40:07.209Z,1037.29
2023-03-28T10:41:07.107Z,1037.29
2023-03-28T10:42:07.126Z,1037.31
2023-03-28T10:43:07.084Z,1037.28
2023-03-28T10:44:07.078Z,1037.32
2023-03-28T10:45:07.085Z,1037.56
2023-03-28T10:46:07.103Z,1037.57
2023-03-28T10:47:07.055Z,1037.60
2023-03-28T10:48:07.076Z,1037.56
2023-03-28T10:49:07.033Z,1037.59
2023-03-28T10:50:07.004Z,1037.60
2023-03-28T10:51:07.004Z,1037.60
2023-03-28T10:52:06.989Z,1037.63
2023-03-28T10:53:07.033Z,1037.66
2023-03-28T10:54:06.948Z,1037.85
2023-03-28T10:55:14.972Z,1037.90
2023-03-28T10:56:13.943Z,1037.88
2023-03-28T10:57:06.971Z,1037.68
2023-03-28T10:58:14.925Z,1037.49
2023-03-28T10:59:06.893Z,1037.23
2023-03-28T11:00:06.883Z,1037.50
2023-03-28T11:01:06.881Z,1037.62
2023-03-28T11:02:07.070Z,1037.88
2023-03-28T11:03:06.944Z,1037.94
2023-03-28T11:04:07.006Z,1037.96
2023-03-28T11:05:06.829Z,1038.03
2023-03-28T11:06:09.885Z,1038.07
2023-03-28T11:07:06.852Z,1038.08
2023-03-28T11:08:06.795Z,1038.08
2023-03-28T11:09:06.789Z,1038.07
2023-03-28T11:10:06.766Z,1038.05
2023-03-28T11:11:06.758Z,1038.05
2023-03-28T11:12:06.761Z,1037.99
2023-03-28T11:13:06.764Z,1037.91
2023-03-28T11:14:06.725Z,1037.59
2023-03-28T11:15:06.732Z,1037.32
2023-03-28T11:16:06.744Z,1037.54
2023-03-28T11:17:06.710Z,1037.56
2023-03-28T11:18:06.709Z,1037.57
2023-03-28T11:19:06.674Z,1037.66
2023-03-28T11:20:06.689Z,1037.66
2023-03-28T11:21:06.644Z,1037.60
2023-03-28T11:22:06.634Z,1037.64
2023-03-28T11:23:06.980Z,1037.68
2023-03-28T11:24:06.638Z,1037.88
2023-03-28T11:25:08.459Z,1037.94
2023-03-28T11:26:06.577Z,1037.91
2023-03-28T11:27:15.463Z,1037.94
2023-03-28T11:28:07.554Z,1037.95
2023-03-28T11:29:06.554Z,1037.92
2023-03-28T11:30:06.533Z,1038.00
2023-03-28T11:31:06.554Z,1038.09
2023-03-28T11:32:06.515Z,1038.35
2023-03-28T11:33:06.557Z,1038.46
2023-03-28T11:34:06.499Z,1038.40
2023-03-28T11:35:06.540Z,1038.36
2023-03-28T11:36:06.519Z,1038.41
2023-03-28T11:37:06.468Z,1038.52
2023-03-28T11:38:06.452Z,1038.52
2023-03-28T11:39:06.462Z,1038.46
2023-03-28T11:40:07.545Z,1038.41
2023-03-28T11:41:06.426Z,1038.39
2023-03-28T11:42:06.408Z,1038.29
2023-03-28T11:43:06.416Z,1038.08
2023-03-28T11:44:06.407Z,1038.26
2023-03-28T11:45:06.381Z,1038.28
2023-03-28T11:46:06.379Z,1038.25
2023-03-28T11:47:06.347Z,1038.30
2023-03-28T11:48:06.423Z,1038.35
2023-03-28T11:49:06.350Z,1038.41
2023-03-28T11:50:06.554Z,1038.40
2023-03-28T11:51:06.296Z,1038.41
2023-03-28T11:52:06.277Z,1038.45
2023-03-28T11:53:06.298Z,1038.48
2023-03-28T11:54:06.332Z,1038.51
2023-03-28T11:55:06.243Z,1038.79
2023-03-28T11:56:06.232Z,1038.87
2023-03-28T11:57:06.296Z,1038.96
2023-03-28T11:58:06.238Z,1038.82
2023-03-28T11:59:06.213Z,1038.79
2023-03-28T12:00:06.210Z,1038.74
2023-03-28T12:01:06.274Z,1038.76
2023-03-28T12:02:06.961Z,1038.77
2023-03-28T12:03:06.351Z,1038.39
2023-03-28T12:04:06.265Z,1038.44
2023-03-28T12:05:06.147Z,1038.70